sensor_id;sensor_type;location;lat;lon;timestamp;P1;durP1;ratioP1;P2;durP2;ratioP2
13584;SDS011;6863;48.402;9.994;2023-02-15T00:00:11;84.33;;;36.90;;
13584;SDS011;6863;48.402;9.994;2023-02-15T00:02:37;87.27;;;35.87;;
13584;SDS011;6863;48.402;9.994;2023-02-15T00:05:03;95.87;;;34.90;;
13584;SDS011;6863;48.402;9.994;2023-02-15T00:07:29;76.53;;;34.57;;
13584;SDS011;6863;48.402;9.994;2023-02-15T00:09:55;88.90;;;35.83;;
13584;SDS011;6863;48.402;9.994;2023-02-15T00:12:20;67.13;;;30.20;;
13584;SDS011;6863;48.402;9.994;2023-02-15T00:14:46;71.93;;;31.80;;
13584;SDS011;6863;48.402;9.994;2023-02-15T00:17:12;58.43;;;28.87;;
13584;SDS011;6863;48.402;9.994;2023-02-15T00:19:38;76.00;;;30.13;;
13584;SDS011;6863;48.402;9.994;2023-02-15T00:22:05;71.23;;;30.40;;
13584;SDS011;6863;48.402;9.994;2023-02-15T00:24:31;69.30;;;31.90;;
13584;SDS011;6863;48.402;9.994;2023-02-15T00:26:57;73.87;;;31.73;;
13584;SDS011;6863;48.402;9.994;2023-02-15T00:29:22;75.70;;;31.43;;
13584;SDS011;6863;48.402;9.994;2023-02-15T00:31:48;57.33;;;30.87;;
13584;SDS011;6863;48.402;9.994;2023-02-15T00:34:26;62.10;;;31.20;;
13584;SDS011;6863;48.402;9.994;2023-02-15T00:36:52;73.17;;;32.03;;
13584;SDS011;6863;48.402;9.994;2023-02-15T00:39:18;64.80;;;32.67;;
13584;SDS011;6863;48.402;9.994;2023-02-15T00:41:45;72.90;;;32.47;;
13584;SDS011;6863;48.402;9.994;2023-02-15T00:44:11;68.90;;;33.97;;
13584;SDS011;6863;48.402;9.994;2023-02-15T00:46:37;74.90;;;35.23;;
13584;SDS011;6863;48.402;9.994;2023-02-15T00:49:04;84.83;;;38.67;;
13584;SDS011;6863;48.402;9.994;2023-02-15T00:51:30;76.27;;;35.83;;
13584;SDS011;6863;48.402;9.994;2023-02-15T00:53:56;86.40;;;36.30;;
13584;SDS011;6863;48.402;9.994;2023-02-15T00:56:21;79.10;;;35.67;;
13584;SDS011;6863;48.402;9.994;2023-02-15T00:58:47;75.07;;;41.90;;
13584;SDS011;6863;48.402;9.994;2023-02-15T01:01:14;84.67;;;42.10;;
13584;SDS011;6863;48.402;9.994;2023-02-15T01:03:41;85.03;;;42.10;;
13584;SDS011;6863;48.402;9.994;2023-02-15T01:06:07;88.37;;;43.10;;
13584;SDS011;6863;48.402;9.994;2023-02-15T01:08:34;100.40;;;42.50;;
13584;SDS011;6863;48.402;9.994;2023-02-15T01:11:06;100.77;;;40.00;;
13584;SDS011;6863;48.402;9.994;2023-02-15T01:13:34;74.33;;;35.43;;
13584;SDS011;6863;48.402;9.994;2023-02-15T01:16:00;92.87;;;37.20;;
13584;SDS011;6863;48.402;9.994;2023-02-15T01:18:27;102.77;;;40.27;;
13584;SDS011;6863;48.402;9.994;2023-02-15T01:20:52;127.93;;;42.90;;
13584;SDS011;6863;48.402;9.994;2023-02-15T01:23:18;106.87;;;42.20;;
13584;SDS011;6863;48.402;9.994;2023-02-15T01:25:47;109.07;;;43.00;;
13584;SDS011;6863;48.402;9.994;2023-02-15T01:28:13;103.03;;;44.63;;
13584;SDS011;6863;48.402;9.994;2023-02-15T01:30:40;96.60;;;47.93;;
13584;SDS011;6863;48.402;9.994;2023-02-15T01:33:06;94.93;;;45.80;;
13584;SDS011;6863;48.402;9.994;2023-02-15T01:35:32;96.23;;;43.50;;
13584;SDS011;6863;48.402;9.994;2023-02-15T01:37:58;80.63;;;40.73;;
13584;SDS011;6863;48.402;9.994;2023-02-15T01:40:24;96.80;;;46.10;;
13584;SDS011;6863;48.402;9.994;2023-02-15T01:42:51;100.17;;;43.13;;
13584;SDS011;6863;48.402;9.994;2023-02-15T01:45:24;87.93;;;37.17;;
13584;SDS011;6863;48.402;9.994;2023-02-15T01:47:58;72.60;;;34.97;;
13584;SDS011;6863;48.402;9.994;2023-02-15T01:50:55;76.13;;;35.27;;
13584;SDS011;6863;48.402;9.994;2023-02-15T01:53:24;88.77;;;36.47;;
13584;SDS011;6863;48.402;9.994;2023-02-15T01:58:24;84.73;;;40.20;;
13584;SDS011;6863;48.402;9.994;2023-02-15T02:00:52;84.40;;;36.67;;
13584;SDS011;6863;48.402;9.994;2023-02-15T02:03:20;74.63;;;35.53;;
13584;SDS011;6863;48.402;9.994;2023-02-15T02:05:55;93.10;;;39.30;;
13584;SDS011;6863;48.402;9.994;2023-02-15T02:08:21;89.93;;;36.03;;
13584;SDS011;6863;48.402;9.994;2023-02-15T02:10:46;80.53;;;36.53;;
13584;SDS011;6863;48.402;9.994;2023-02-15T02:13:12;92.90;;;37.50;;
13584;SDS011;6863;48.402;9.994;2023-02-15T02:15:40;89.67;;;36.07;;
13584;SDS011;6863;48.402;9.994;2023-02-15T02:18:24;74.23;;;33.50;;
13584;SDS011;6863;48.402;9.994;2023-02-15T02:21:07;81.70;;;31.60;;
13584;SDS011;6863;48.402;9.994;2023-02-15T02:24:13;91.07;;;30.80;;
13584;SDS011;6863;48.402;9.994;2023-02-15T02:34:42;63.47;;;27.87;;
13584;SDS011;6863;48.402;9.994;2023-02-15T02:40:01;64.43;;;25.27;;
13584;SDS011;6863;48.402;9.994;2023-02-15T02:45:13;57.70;;;24.20;;
13584;SDS011;6863;48.402;9.994;2023-02-15T02:47:45;53.87;;;24.00;;
13584;SDS011;6863;48.402;9.994;2023-02-15T02:50:16;53.17;;;25.97;;
13584;SDS011;6863;48.402;9.994;2023-02-15T02:52:49;59.07;;;27.37;;
13584;SDS011;6863;48.402;9.994;2023-02-15T02:55:18;80.37;;;28.70;;
13584;SDS011;6863;48.402;9.994;2023-02-15T03:01:12;46.73;;;24.40;;
13584;SDS011;6863;48.402;9.994;2023-02-15T03:03:43;54.13;;;25.17;;
13584;SDS011;6863;48.402;9.994;2023-02-15T03:06:19;58.83;;;26.03;;
13584;SDS011;6863;48.402;9.994;2023-02-15T03:09:04;70.00;;;30.07;;
13584;SDS011;6863;48.402;9.994;2023-02-15T03:11:43;88.70;;;37.70;;
13584;SDS011;6863;48.402;9.994;2023-02-15T03:14:11;93.43;;;34.43;;
13584;SDS011;6863;48.402;9.994;2023-02-15T03:16:39;101.03;;;39.23;;
13584;SDS011;6863;48.402;9.994;2023-02-15T03:19:10;69.83;;;37.40;;
13584;SDS011;6863;48.402;9.994;2023-02-15T03:21:41;84.00;;;39.70;;
13584;SDS011;6863;48.402;9.994;2023-02-15T03:24:23;84.37;;;39.80;;
13584;SDS011;6863;48.402;9.994;2023-02-15T03:26:51;80.73;;;37.10;;
13584;SDS011;6863;48.402;9.994;2023-02-15T03:29:20;87.80;;;40.20;;
13584;SDS011;6863;48.402;9.994;2023-02-15T03:31:51;84.20;;;39.90;;
13584;SDS011;6863;48.402;9.994;2023-02-15T03:34:21;112.00;;;44.30;;
13584;SDS011;6863;48.402;9.994;2023-02-15T03:39:38;112.77;;;43.60;;
13584;SDS011;6863;48.402;9.994;2023-02-15T03:44:56;124.50;;;46.30;;
13584;SDS011;6863;48.402;9.994;2023-02-15T03:47:27;111.77;;;48.53;;
13584;SDS011;6863;48.402;9.994;2023-02-15T03:50:07;121.73;;;43.10;;
13584;SDS011;6863;48.402;9.994;2023-02-15T03:52:56;122.27;;;32.20;;
13584;SDS011;6863;48.402;9.994;2023-02-15T03:55:23;104.63;;;30.73;;
13584;SDS011;6863;48.402;9.994;2023-02-15T03:57:49;96.67;;;31.00;;
13584;SDS011;6863;48.402;9.994;2023-02-15T04:00:35;70.10;;;27.80;;
13584;SDS011;6863;48.402;9.994;2023-02-15T04:06:02;47.17;;;24.00;;
13584;SDS011;6863;48.402;9.994;2023-02-15T04:08:28;51.70;;;25.93;;
13584;SDS011;6863;48.402;9.994;2023-02-15T04:11:12;79.37;;;24.20;;
13584;SDS011;6863;48.402;9.994;2023-02-15T04:13:38;119.53;;;26.10;;
13584;SDS011;6863;48.402;9.994;2023-02-15T04:16:04;120.10;;;28.40;;
13584;SDS011;6863;48.402;9.994;2023-02-15T04:18:33;81.27;;;23.57;;
13584;SDS011;6863;48.402;9.994;2023-02-15T04:21:18;110.83;;;27.77;;
13584;SDS011;6863;48.402;9.994;2023-02-15T04:24:04;50.53;;;20.80;;
13584;SDS011;6863;48.402;9.994;2023-02-15T04:26:48;123.40;;;24.97;;
13584;SDS011;6863;48.402;9.994;2023-02-15T04:29:17;64.83;;;24.43;;
13584;SDS011;6863;48.402;9.994;2023-02-15T04:31:42;101.80;;;23.63;;
13584;SDS011;6863;48.402;9.994;2023-02-15T04:34:08;32.90;;;19.57;;
13584;SDS011;6863;48.402;9.994;2023-02-15T04:36:34;90.97;;;24.67;;
13584;SDS011;6863;48.402;9.994;2023-02-15T04:39:00;59.47;;;21.37;;
13584;SDS011;6863;48.402;9.994;2023-02-15T04:41:26;68.13;;;22.77;;
13584;SDS011;6863;48.402;9.994;2023-02-15T04:43:51;36.93;;;18.97;;
13584;SDS011;6863;48.402;9.994;2023-02-15T04:46:17;43.93;;;20.80;;
13584;SDS011;6863;48.402;9.994;2023-02-15T04:48:42;29.30;;;18.27;;
13584;SDS011;6863;48.402;9.994;2023-02-15T04:51:08;48.10;;;19.47;;
13584;SDS011;6863;48.402;9.994;2023-02-15T04:53:34;55.27;;;20.03;;
13584;SDS011;6863;48.402;9.994;2023-02-15T04:56:01;45.23;;;20.23;;
13584;SDS011;6863;48.402;9.994;2023-02-15T04:58:27;31.87;;;18.60;;
13584;SDS011;6863;48.402;9.994;2023-02-15T05:00:56;52.17;;;21.70;;
13584;SDS011;6863;48.402;9.994;2023-02-15T05:03:22;40.17;;;20.10;;
13584;SDS011;6863;48.402;9.994;2023-02-15T05:05:47;32.40;;;19.57;;
13584;SDS011;6863;48.402;9.994;2023-02-15T05:08:13;33.57;;;19.53;;
13584;SDS011;6863;48.402;9.994;2023-02-15T05:10:39;29.07;;;19.63;;
13584;SDS011;6863;48.402;9.994;2023-02-15T05:13:04;48.90;;;19.03;;
13584;SDS011;6863;48.402;9.994;2023-02-15T05:15:30;38.17;;;19.43;;
13584;SDS011;6863;48.402;9.994;2023-02-15T05:17:56;71.83;;;21.67;;
13584;SDS011;6863;48.402;9.994;2023-02-15T05:20:21;30.43;;;17.47;;
13584;SDS011;6863;48.402;9.994;2023-02-15T05:22:52;31.27;;;18.57;;
13584;SDS011;6863;48.402;9.994;2023-02-15T05:25:19;24.80;;;17.30;;
13584;SDS011;6863;48.402;9.994;2023-02-15T05:28:03;26.93;;;18.90;;
13584;SDS011;6863;48.402;9.994;2023-02-15T05:30:47;27.10;;;18.37;;
13584;SDS011;6863;48.402;9.994;2023-02-15T05:33:14;29.40;;;18.33;;
13584;SDS011;6863;48.402;9.994;2023-02-15T05:35:40;26.83;;;17.07;;
13584;SDS011;6863;48.402;9.994;2023-02-15T05:38:05;23.93;;;17.10;;
13584;SDS011;6863;48.402;9.994;2023-02-15T05:40:31;32.43;;;18.77;;
13584;SDS011;6863;48.402;9.994;2023-02-15T05:42:57;24.37;;;17.03;;
13584;SDS011;6863;48.402;9.994;2023-02-15T05:45:22;29.87;;;17.93;;
13584;SDS011;6863;48.402;9.994;2023-02-15T05:47:48;29.47;;;18.60;;
13584;SDS011;6863;48.402;9.994;2023-02-15T05:50:14;23.40;;;17.47;;
13584;SDS011;6863;48.402;9.994;2023-02-15T05:52:39;25.87;;;18.90;;
13584;SDS011;6863;48.402;9.994;2023-02-15T05:55:05;25.53;;;17.73;;
13584;SDS011;6863;48.402;9.994;2023-02-15T05:57:33;24.10;;;16.90;;
13584;SDS011;6863;48.402;9.994;2023-02-15T05:59:59;29.63;;;18.80;;
13584;SDS011;6863;48.402;9.994;2023-02-15T06:02:25;24.87;;;17.67;;
13584;SDS011;6863;48.402;9.994;2023-02-15T06:04:51;24.90;;;16.90;;
13584;SDS011;6863;48.402;9.994;2023-02-15T06:07:16;29.63;;;19.97;;
13584;SDS011;6863;48.402;9.994;2023-02-15T06:09:42;37.17;;;19.40;;
13584;SDS011;6863;48.402;9.994;2023-02-15T06:12:08;30.23;;;17.93;;
13584;SDS011;6863;48.402;9.994;2023-02-15T06:14:33;25.23;;;17.20;;
13584;SDS011;6863;48.402;9.994;2023-02-15T06:16:59;28.73;;;17.73;;
13584;SDS011;6863;48.402;9.994;2023-02-15T06:19:24;24.80;;;17.37;;
13584;SDS011;6863;48.402;9.994;2023-02-15T06:21:50;23.20;;;16.87;;
13584;SDS011;6863;48.402;9.994;2023-02-15T06:24:15;25.03;;;17.27;;
13584;SDS011;6863;48.402;9.994;2023-02-15T06:26:41;24.97;;;15.97;;
13584;SDS011;6863;48.402;9.994;2023-02-15T06:29:07;26.47;;;16.67;;
13584;SDS011;6863;48.402;9.994;2023-02-15T06:31:32;41.63;;;18.67;;
13584;SDS011;6863;48.402;9.994;2023-02-15T06:33:58;45.17;;;18.67;;
13584;SDS011;6863;48.402;9.994;2023-02-15T06:36:29;26.40;;;17.23;;
13584;SDS011;6863;48.402;9.994;2023-02-15T06:38:55;26.47;;;17.70;;
13584;SDS011;6863;48.402;9.994;2023-02-15T06:41:21;35.87;;;18.20;;
13584;SDS011;6863;48.402;9.994;2023-02-15T06:43:47;26.23;;;17.30;;
13584;SDS011;6863;48.402;9.994;2023-02-15T06:46:13;24.57;;;18.23;;
13584;SDS011;6863;48.402;9.994;2023-02-15T06:48:39;24.47;;;18.80;;
13584;SDS011;6863;48.402;9.994;2023-02-15T06:51:05;23.43;;;18.10;;
13584;SDS011;6863;48.402;9.994;2023-02-15T06:53:30;25.40;;;18.03;;
13584;SDS011;6863;48.402;9.994;2023-02-15T06:56:03;25.33;;;18.57;;
13584;SDS011;6863;48.402;9.994;2023-02-15T06:58:35;26.53;;;18.77;;
13584;SDS011;6863;48.402;9.994;2023-02-15T07:01:01;25.23;;;17.33;;
13584;SDS011;6863;48.402;9.994;2023-02-15T07:03:27;31.00;;;20.83;;
13584;SDS011;6863;48.402;9.994;2023-02-15T07:05:56;36.07;;;20.60;;
13584;SDS011;6863;48.402;9.994;2023-02-15T07:08:23;34.70;;;20.63;;
13584;SDS011;6863;48.402;9.994;2023-02-15T07:10:50;38.63;;;22.87;;
13584;SDS011;6863;48.402;9.994;2023-02-15T07:13:16;44.70;;;25.47;;
13584;SDS011;6863;48.402;9.994;2023-02-15T07:15:41;39.30;;;24.07;;
13584;SDS011;6863;48.402;9.994;2023-02-15T07:18:07;46.13;;;26.40;;
13584;SDS011;6863;48.402;9.994;2023-02-15T07:20:34;45.60;;;27.03;;
13584;SDS011;6863;48.402;9.994;2023-02-15T07:23:00;47.00;;;25.67;;
13584;SDS011;6863;48.402;9.994;2023-02-15T07:25:26;48.03;;;26.87;;
13584;SDS011;6863;48.402;9.994;2023-02-15T07:27:59;44.00;;;26.60;;
13584;SDS011;6863;48.402;9.994;2023-02-15T07:30:25;50.50;;;26.20;;
13584;SDS011;6863;48.402;9.994;2023-02-15T07:32:55;46.63;;;25.67;;
13584;SDS011;6863;48.402;9.994;2023-02-15T07:35:46;44.43;;;26.73;;
13584;SDS011;6863;48.402;9.994;2023-02-15T07:38:13;42.80;;;25.90;;
13584;SDS011;6863;48.402;9.994;2023-02-15T07:40:39;42.03;;;25.70;;
13584;SDS011;6863;48.402;9.994;2023-02-15T07:43:08;44.90;;;23.23;;
13584;SDS011;6863;48.402;9.994;2023-02-15T07:45:33;37.87;;;23.33;;
13584;SDS011;6863;48.402;9.994;2023-02-15T07:48:03;41.33;;;24.27;;
13584;SDS011;6863;48.402;9.994;2023-02-15T07:50:29;36.67;;;23.27;;
13584;SDS011;6863;48.402;9.994;2023-02-15T07:52:55;36.60;;;23.20;;
13584;SDS011;6863;48.402;9.994;2023-02-15T07:55:20;41.77;;;25.03;;
13584;SDS011;6863;48.402;9.994;2023-02-15T07:57:47;39.83;;;22.70;;
13584;SDS011;6863;48.402;9.994;2023-02-15T08:00:15;34.00;;;22.20;;
13584;SDS011;6863;48.402;9.994;2023-02-15T08:02:42;29.60;;;19.63;;
13584;SDS011;6863;48.402;9.994;2023-02-15T08:05:13;27.17;;;18.63;;
13584;SDS011;6863;48.402;9.994;2023-02-15T08:07:43;27.23;;;17.07;;
13584;SDS011;6863;48.402;9.994;2023-02-15T08:10:08;24.90;;;17.43;;
13584;SDS011;6863;48.402;9.994;2023-02-15T08:12:34;22.27;;;17.30;;
13584;SDS011;6863;48.402;9.994;2023-02-15T08:14:59;29.37;;;18.63;;
13584;SDS011;6863;48.402;9.994;2023-02-15T08:17:25;27.20;;;18.40;;
13584;SDS011;6863;48.402;9.994;2023-02-15T08:19:51;26.27;;;18.37;;
13584;SDS011;6863;48.402;9.994;2023-02-15T08:22:16;26.23;;;19.57;;
13584;SDS011;6863;48.402;9.994;2023-02-15T08:24:42;26.80;;;18.90;;
13584;SDS011;6863;48.402;9.994;2023-02-15T08:27:09;28.53;;;17.77;;
13584;SDS011;6863;48.402;9.994;2023-02-15T08:29:36;24.63;;;17.47;;
13584;SDS011;6863;48.402;9.994;2023-02-15T08:32:06;26.83;;;18.93;;
13584;SDS011;6863;48.402;9.994;2023-02-15T08:34:38;25.43;;;17.93;;
13584;SDS011;6863;48.402;9.994;2023-02-15T08:37:05;26.63;;;19.47;;
13584;SDS011;6863;48.402;9.994;2023-02-15T08:39:33;25.87;;;18.30;;
13584;SDS011;6863;48.402;9.994;2023-02-15T08:41:59;26.03;;;16.93;;
13584;SDS011;6863;48.402;9.994;2023-02-15T08:44:25;26.00;;;18.07;;
13584;SDS011;6863;48.402;9.994;2023-02-15T08:46:51;24.47;;;17.20;;
13584;SDS011;6863;48.402;9.994;2023-02-15T08:49:17;23.53;;;17.07;;
13584;SDS011;6863;48.402;9.994;2023-02-15T08:51:44;22.63;;;15.80;;
13584;SDS011;6863;48.402;9.994;2023-02-15T08:54:15;22.37;;;15.23;;
13584;SDS011;6863;48.402;9.994;2023-02-15T08:56:43;23.10;;;16.10;;
13584;SDS011;6863;48.402;9.994;2023-02-15T08:59:14;20.90;;;16.27;;
13584;SDS011;6863;48.402;9.994;2023-02-15T09:01:46;23.67;;;16.60;;
13584;SDS011;6863;48.402;9.994;2023-02-15T09:04:13;21.07;;;16.30;;
13584;SDS011;6863;48.402;9.994;2023-02-15T09:06:41;17.60;;;14.83;;
13584;SDS011;6863;48.402;9.994;2023-02-15T09:09:09;18.43;;;15.13;;
13584;SDS011;6863;48.402;9.994;2023-02-15T09:11:39;19.40;;;14.57;;
13584;SDS011;6863;48.402;9.994;2023-02-15T09:14:08;17.93;;;14.67;;
13584;SDS011;6863;48.402;9.994;2023-02-15T09:16:45;20.70;;;15.80;;
13584;SDS011;6863;48.402;9.994;2023-02-15T09:19:14;25.00;;;18.03;;
13584;SDS011;6863;48.402;9.994;2023-02-15T09:21:40;29.60;;;19.80;;
13584;SDS011;6863;48.402;9.994;2023-02-15T09:24:07;30.60;;;20.30;;
13584;SDS011;6863;48.402;9.994;2023-02-15T09:26:35;30.43;;;20.23;;
13584;SDS011;6863;48.402;9.994;2023-02-15T09:29:03;27.43;;;18.87;;
13584;SDS011;6863;48.402;9.994;2023-02-15T09:31:31;28.97;;;19.27;;
13584;SDS011;6863;48.402;9.994;2023-02-15T09:33:59;28.93;;;20.20;;
13584;SDS011;6863;48.402;9.994;2023-02-15T09:36:27;24.70;;;19.57;;
13584;SDS011;6863;48.402;9.994;2023-02-15T09:39:10;29.43;;;19.47;;
13584;SDS011;6863;48.402;9.994;2023-02-15T09:50:12;23.90;;;16.80;;
13584;SDS011;6863;48.402;9.994;2023-02-15T10:01:39;27.10;;;19.37;;
13584;SDS011;6863;48.402;9.994;2023-02-15T10:04:55;30.73;;;18.90;;
13584;SDS011;6863;48.402;9.994;2023-02-15T10:13:26;27.10;;;18.80;;
13584;SDS011;6863;48.402;9.994;2023-02-15T10:21:45;26.00;;;18.73;;
13584;SDS011;6863;48.402;9.994;2023-02-15T10:24:39;24.47;;;17.40;;
13584;SDS011;6863;48.402;9.994;2023-02-15T10:27:18;25.60;;;17.70;;
13584;SDS011;6863;48.402;9.994;2023-02-15T10:29:48;26.50;;;19.57;;
13584;SDS011;6863;48.402;9.994;2023-02-15T10:32:27;24.00;;;17.87;;
13584;SDS011;6863;48.402;9.994;2023-02-15T10:35:01;22.57;;;18.40;;
13584;SDS011;6863;48.402;9.994;2023-02-15T10:37:40;23.00;;;17.03;;
13584;SDS011;6863;48.402;9.994;2023-02-15T10:43:32;23.07;;;16.70;;
13584;SDS011;6863;48.402;9.994;2023-02-15T10:46:23;23.93;;;17.57;;
13584;SDS011;6863;48.402;9.994;2023-02-15T10:51:39;24.90;;;17.10;;
13584;SDS011;6863;48.402;9.994;2023-02-15T11:07:41;21.97;;;16.40;;
13584;SDS011;6863;48.402;9.994;2023-02-15T11:12:47;20.43;;;16.00;;
13584;SDS011;6863;48.402;9.994;2023-02-15T11:17:41;22.30;;;16.20;;
13584;SDS011;6863;48.402;9.994;2023-02-15T11:20:16;19.73;;;16.87;;
13584;SDS011;6863;48.402;9.994;2023-02-15T11:23:06;26.23;;;19.03;;
13584;SDS011;6863;48.402;9.994;2023-02-15T11:25:40;25.73;;;18.97;;
13584;SDS011;6863;48.402;9.994;2023-02-15T11:28:10;23.10;;;17.97;;
13584;SDS011;6863;48.402;9.994;2023-02-15T11:30:45;24.43;;;17.73;;
13584;SDS011;6863;48.402;9.994;2023-02-15T11:33:21;22.23;;;16.93;;
13584;SDS011;6863;48.402;9.994;2023-02-15T11:38:33;21.10;;;16.33;;
13584;SDS011;6863;48.402;9.994;2023-02-15T11:41:01;19.37;;;16.47;;
13584;SDS011;6863;48.402;9.994;2023-02-15T11:46:26;24.27;;;18.17;;
13584;SDS011;6863;48.402;9.994;2023-02-15T11:48:53;21.70;;;17.47;;
13584;SDS011;6863;48.402;9.994;2023-02-15T11:51:20;21.53;;;16.67;;
13584;SDS011;6863;48.402;9.994;2023-02-15T11:53:47;18.17;;;16.20;;
13584;SDS011;6863;48.402;9.994;2023-02-15T11:56:18;19.43;;;15.67;;
13584;SDS011;6863;48.402;9.994;2023-02-15T12:01:48;22.53;;;18.67;;
13584;SDS011;6863;48.402;9.994;2023-02-15T12:04:21;22.00;;;18.07;;
13584;SDS011;6863;48.402;9.994;2023-02-15T12:09:51;20.57;;;18.40;;
13584;SDS011;6863;48.402;9.994;2023-02-15T12:12:33;21.25;;;19.15;;
13584;SDS011;6863;48.402;9.994;2023-02-15T12:15:00;21.40;;;19.10;;
13584;SDS011;6863;48.402;9.994;2023-02-15T12:17:30;22.45;;;20.15;;
13584;SDS011;6863;48.402;9.994;2023-02-15T12:22:46;23.60;;;21.30;;
13584;SDS011;6863;48.402;9.994;2023-02-15T12:28:02;22.45;;;20.30;;
13584;SDS011;6863;48.402;9.994;2023-02-15T12:30:31;21.92;;;19.92;;
13584;SDS011;6863;48.402;9.994;2023-02-15T12:33:07;23.67;;;21.58;;
13584;SDS011;6863;48.402;9.994;2023-02-15T12:35:39;23.50;;;21.15;;
13584;SDS011;6863;48.402;9.994;2023-02-15T12:40:37;22.88;;;20.77;;
13584;SDS011;6863;48.402;9.994;2023-02-15T12:43:03;24.85;;;22.35;;
13584;SDS011;6863;48.402;9.994;2023-02-15T12:45:34;24.63;;;22.42;;
13584;SDS011;6863;48.402;9.994;2023-02-15T12:50:41;25.48;;;23.08;;
13584;SDS011;6863;48.402;9.994;2023-02-15T12:53:19;24.10;;;21.90;;
13584;SDS011;6863;48.402;9.994;2023-02-15T12:55:56;23.92;;;21.58;;
13584;SDS011;6863;48.402;9.994;2023-02-15T12:58:24;24.65;;;22.38;;
13584;SDS011;6863;48.402;9.994;2023-02-15T13:06:21;23.60;;;21.50;;
13584;SDS011;6863;48.402;9.994;2023-02-15T13:11:44;25.38;;;23.05;;
13584;SDS011;6863;48.402;9.994;2023-02-15T13:14:16;23.85;;;21.75;;
13584;SDS011;6863;48.402;9.994;2023-02-15T13:17:03;23.83;;;21.77;;
13584;SDS011;6863;48.402;9.994;2023-02-15T13:19:37;26.80;;;24.00;;
13584;SDS011;6863;48.402;9.994;2023-02-15T13:22:14;24.58;;;22.38;;
13584;SDS011;6863;48.402;9.994;2023-02-15T13:24:58;24.55;;;22.05;;
13584;SDS011;6863;48.402;9.994;2023-02-15T13:27:35;23.92;;;21.70;;
13584;SDS011;6863;48.402;9.994;2023-02-15T13:30:08;24.67;;;22.15;;
13584;SDS011;6863;48.402;9.994;2023-02-15T13:32:43;24.83;;;22.35;;
13584;SDS011;6863;48.402;9.994;2023-02-15T13:35:13;23.67;;;21.48;;
13584;SDS011;6863;48.402;9.994;2023-02-15T13:38:00;23.50;;;21.33;;
13584;SDS011;6863;48.402;9.994;2023-02-15T13:52:08;23.98;;;21.88;;
13584;SDS011;6863;48.402;9.994;2023-02-15T13:57:19;26.05;;;22.13;;
13584;SDS011;6863;48.402;9.994;2023-02-15T14:00:11;23.13;;;21.02;;
13584;SDS011;6863;48.402;9.994;2023-02-15T14:05:44;25.42;;;22.77;;
13584;SDS011;6863;48.402;9.994;2023-02-15T14:08:37;26.77;;;24.38;;
13584;SDS011;6863;48.402;9.994;2023-02-15T14:11:14;25.42;;;22.92;;
13584;SDS011;6863;48.402;9.994;2023-02-15T14:14:01;26.98;;;24.17;;
13584;SDS011;6863;48.402;9.994;2023-02-15T14:19:05;27.85;;;23.58;;
13584;SDS011;6863;48.402;9.994;2023-02-15T14:21:51;22.67;;;20.60;;
13584;SDS011;6863;48.402;9.994;2023-02-15T14:27:17;23.50;;;21.38;;
13584;SDS011;6863;48.402;9.994;2023-02-15T14:32:21;24.58;;;22.23;;
13584;SDS011;6863;48.402;9.994;2023-02-15T14:34:57;28.25;;;21.90;;
13584;SDS011;6863;48.402;9.994;2023-02-15T14:37:41;24.73;;;22.30;;
13584;SDS011;6863;48.402;9.994;2023-02-15T14:40:10;24.20;;;21.80;;
13584;SDS011;6863;48.402;9.994;2023-02-15T14:43:15;25.80;;;23.40;;
13584;SDS011;6863;48.402;9.994;2023-02-15T14:46:16;23.55;;;21.35;;
13584;SDS011;6863;48.402;9.994;2023-02-15T14:49:13;25.73;;;23.23;;
13584;SDS011;6863;48.402;9.994;2023-02-15T15:02:56;22.90;;;20.92;;
13584;SDS011;6863;48.402;9.994;2023-02-15T15:08:01;23.27;;;21.27;;
13584;SDS011;6863;48.402;9.994;2023-02-15T15:10:39;21.83;;;19.77;;
13584;SDS011;6863;48.402;9.994;2023-02-15T15:18:54;22.67;;;20.48;;
13584;SDS011;6863;48.402;9.994;2023-02-15T15:24:59;23.63;;;21.23;;
13584;SDS011;6863;48.402;9.994;2023-02-15T15:35:18;26.08;;;23.00;;
13584;SDS011;6863;48.402;9.994;2023-02-15T15:49:57;29.75;;;26.50;;
13584;SDS011;6863;48.402;9.994;2023-02-15T15:52:24;34.50;;;27.25;;
13584;SDS011;6863;48.402;9.994;2023-02-15T15:55:01;28.65;;;25.88;;
13584;SDS011;6863;48.402;9.994;2023-02-15T15:57:34;25.48;;;22.60;;
13584;SDS011;6863;48.402;9.994;2023-02-15T16:00:03;24.48;;;21.83;;
13584;SDS011;6863;48.402;9.994;2023-02-15T16:02:30;26.15;;;21.38;;
13584;SDS011;6863;48.402;9.994;2023-02-15T16:05:06;23.17;;;20.77;;
13584;SDS011;6863;48.402;9.994;2023-02-15T16:07:36;24.77;;;21.45;;
13584;SDS011;6863;48.402;9.994;2023-02-15T16:10:07;27.17;;;22.10;;
13584;SDS011;6863;48.402;9.994;2023-02-15T16:12:45;25.77;;;21.13;;
13584;SDS011;6863;48.402;9.994;2023-02-15T16:15:17;24.07;;;20.97;;
13584;SDS011;6863;48.402;9.994;2023-02-15T16:17:47;24.00;;;20.90;;
13584;SDS011;6863;48.402;9.994;2023-02-15T16:28:50;25.63;;;20.87;;
13584;SDS011;6863;48.402;9.994;2023-02-15T16:31:17;27.60;;;21.70;;
13584;SDS011;6863;48.402;9.994;2023-02-15T16:33:43;30.40;;;22.07;;
13584;SDS011;6863;48.402;9.994;2023-02-15T16:36:10;28.13;;;20.97;;
13584;SDS011;6863;48.402;9.994;2023-02-15T16:41:17;34.07;;;22.97;;
13584;SDS011;6863;48.402;9.994;2023-02-15T16:43:50;30.97;;;23.13;;
13584;SDS011;6863;48.402;9.994;2023-02-15T16:46:28;28.10;;;22.33;;
13584;SDS011;6863;48.402;9.994;2023-02-15T16:48:57;32.43;;;22.67;;
13584;SDS011;6863;48.402;9.994;2023-02-15T16:51:28;30.07;;;23.20;;
13584;SDS011;6863;48.402;9.994;2023-02-15T16:53:56;28.03;;;22.63;;
13584;SDS011;6863;48.402;9.994;2023-02-15T16:56:32;33.47;;;24.00;;
13584;SDS011;6863;48.402;9.994;2023-02-15T16:58:58;35.80;;;23.40;;
13584;SDS011;6863;48.402;9.994;2023-02-15T17:01:29;33.77;;;25.00;;
13584;SDS011;6863;48.402;9.994;2023-02-15T17:09:27;35.63;;;24.90;;
13584;SDS011;6863;48.402;9.994;2023-02-15T17:11:53;35.83;;;24.73;;
13584;SDS011;6863;48.402;9.994;2023-02-15T17:14:20;35.53;;;24.87;;
13584;SDS011;6863;48.402;9.994;2023-02-15T17:16:58;38.03;;;25.60;;
13584;SDS011;6863;48.402;9.994;2023-02-15T17:19:32;38.13;;;25.30;;
13584;SDS011;6863;48.402;9.994;2023-02-15T17:22:14;36.83;;;26.20;;
13584;SDS011;6863;48.402;9.994;2023-02-15T17:24:47;40.77;;;26.00;;
13584;SDS011;6863;48.402;9.994;2023-02-15T17:29:50;36.27;;;27.23;;
13584;SDS011;6863;48.402;9.994;2023-02-15T17:32:29;34.53;;;25.23;;
13584;SDS011;6863;48.402;9.994;2023-02-15T17:40:06;36.97;;;26.13;;
13584;SDS011;6863;48.402;9.994;2023-02-15T17:42:43;38.00;;;26.43;;
13584;SDS011;6863;48.402;9.994;2023-02-15T17:45:09;37.07;;;27.77;;
13584;SDS011;6863;48.402;9.994;2023-02-15T17:47:35;34.03;;;26.07;;
13584;SDS011;6863;48.402;9.994;2023-02-15T17:50:01;34.40;;;25.63;;
13584;SDS011;6863;48.402;9.994;2023-02-15T17:52:32;40.03;;;26.17;;
13584;SDS011;6863;48.402;9.994;2023-02-15T17:55:01;37.37;;;26.27;;
13584;SDS011;6863;48.402;9.994;2023-02-15T17:57:55;37.60;;;26.40;;
13584;SDS011;6863;48.402;9.994;2023-02-15T18:00:21;39.43;;;28.33;;
13584;SDS011;6863;48.402;9.994;2023-02-15T18:03:07;39.60;;;26.07;;
13584;SDS011;6863;48.402;9.994;2023-02-15T18:05:54;36.57;;;27.13;;
13584;SDS011;6863;48.402;9.994;2023-02-15T18:08:39;37.20;;;27.33;;
13584;SDS011;6863;48.402;9.994;2023-02-15T18:11:23;38.50;;;25.47;;
13584;SDS011;6863;48.402;9.994;2023-02-15T18:14:01;36.83;;;25.83;;
13584;SDS011;6863;48.402;9.994;2023-02-15T18:16:29;40.23;;;27.93;;
13584;SDS011;6863;48.402;9.994;2023-02-15T18:18:57;36.50;;;27.13;;